Ghent, West Virginia
Current Conditions -  °F | °C
As of 11:51 AM on Thursday 30 Oct 2014 (Local Time) from KBKW Reporting Station
Overcast Overcast  
Wind Chill: 38°   Ceiling: 2500
Heat Index: 42°   Visibility: 10mi
Dew Point: 32°   Wind: 7mph
Humidity: 67%   Direction: 360°N
Pressure: 30.11"   Gusts: NA
Location:  37.62°N, 81.11°W
Report Text: KBKW 301551Z AUTO 36006KT 10SM OVC025 06/00 A3011 RMK AO2 SLP209 T00560000 TSNO
Loading
Personal Weather Stations






























Interactive Weather Map
Tropical Storm Tracking
New forecast layout! Learn more

10-Day Weather Forecast

Advertisements
Track Severe Weather on mobile